Time;durP1;ratioP1;P1;durP2;ratioP2;P2;SDS_P1;SDS_P2;PMS_P1;PMS_P2;Temp;Humidity;BMP_temperature;BMP_pressure;BME280_temperature;BME280_humidity;BME280_pressure;Samples;Min_cycle;Max_cycle;Signal;HPM_P1;HPM_P2
2021/03/10 00:00:33;;;;;;;17.87;14.60;;;12.20;47.40;;;;;;5060383;28;20201;-42
2021/03/10 00:02:59;;;;;;;19.90;15.43;;;12.10;47.70;;;;;;5068822;28;20223;-45
2021/03/10 00:05:24;;;;;;;20.73;15.50;;;12.10;48.10;;;;;;5067840;28;20437;-44
2021/03/10 00:07:50;;;;;;;20.37;15.17;;;12.10;48.10;;;;;;5073608;28;20188;-44
2021/03/10 00:10:16;;;;;;;20.57;15.77;;;12.10;48.00;;;;;;5058591;28;20671;-44
2021/03/10 00:12:42;;;;;;;24.33;15.83;;;12.10;48.10;;;;;;5070600;28;20279;-45
2021/03/10 00:15:10;;;;;;;23.40;16.73;;;12.10;48.10;;;;;;5065551;28;20258;-45
2021/03/10 00:17:36;;;;;;;20.07;16.03;;;12.10;48.20;;;;;;5071736;28;20460;-44
2021/03/10 00:20:06;;;;;;;22.07;15.37;;;12.10;48.20;;;;;;5072901;28;20442;-44
2021/03/10 00:22:31;;;;;;;19.30;15.00;;;12.10;48.20;;;;;;5069538;28;20654;-44
2021/03/10 00:24:57;;;;;;;19.90;15.60;;;12.10;48.30;;;;;;5065874;28;20533;-42
2021/03/10 00:27:25;;;;;;;20.13;16.13;;;12.10;48.70;;;;;;5065465;28;20192;-43
2021/03/10 00:29:56;;;;;;;18.63;15.10;;;12.10;48.30;;;;;;5070963;28;20192;-44
2021/03/10 00:32:23;;;;;;;21.30;16.63;;;12.00;48.30;;;;;;5069620;28;20500;-45
2021/03/10 00:34:48;;;;;;;23.17;17.57;;;12.00;48.40;;;;;;5070761;28;20445;-44
2021/03/10 00:37:16;;;;;;;24.50;17.40;;;12.00;48.50;;;;;;5069901;28;20438;-44
2021/03/10 00:39:43;;;;;;;21.70;15.70;;;12.00;48.70;;;;;;5073440;28;20511;-44
2021/03/10 00:42:09;;;;;;;24.00;17.10;;;12.00;48.90;;;;;;5071231;28;20558;-44
2021/03/10 00:44:35;;;;;;;20.97;15.17;;;11.90;49.10;;;;;;5069732;28;20568;-44
2021/03/10 00:47:00;;;;;;;23.20;16.97;;;11.90;49.30;;;;;;5067415;28;20382;-42
2021/03/10 00:49:26;;;;;;;23.53;16.47;;;11.90;49.40;;;;;;5072525;28;20191;-44
2021/03/10 00:51:51;;;;;;;25.07;16.30;;;11.90;50.00;;;;;;5072018;28;20665;-44
2021/03/10 00:54:17;;;;;;;23.07;17.20;;;11.90;49.20;;;;;;5071120;28;20187;-44
2021/03/10 00:56:43;;;;;;;30.93;19.00;;;12.00;49.30;;;;;;5065438;28;20281;-44
2021/03/10 00:59:08;;;;;;;23.73;17.40;;;12.00;49.50;;;;;;5066382;28;22007;-46
2021/03/10 01:01:34;;;;;;;21.50;16.07;;;11.90;49.40;;;;;;5070458;28;20223;-45
2021/03/10 01:04:00;;;;;;;26.53;16.30;;;11.90;49.40;;;;;;5066256;28;20259;-44
2021/03/10 01:06:25;;;;;;;21.20;15.07;;;11.70;49.80;;;;;;5070024;28;20196;-43
2021/03/10 01:08:51;;;;;;;25.63;17.87;;;11.70;50.00;;;;;;5066545;28;20499;-44
2021/03/10 01:11:17;;;;;;;24.73;16.17;;;11.80;49.80;;;;;;5068674;28;20195;-42
2021/03/10 01:13:44;;;;;;;23.80;16.90;;;11.90;49.70;;;;;;5057895;28;20457;-45
2021/03/10 01:16:09;;;;;;;23.20;16.57;;;11.90;49.60;;;;;;5068058;28;20442;-44
2021/03/10 01:18:35;;;;;;;23.20;16.57;;;11.90;49.40;;;;;;5070563;28;20438;-44
2021/03/10 01:21:01;;;;;;;23.63;16.33;;;11.90;49.40;;;;;;5071718;28;20203;-44
2021/03/10 01:23:27;;;;;;;25.73;17.27;;;12.00;49.50;;;;;;5068547;28;20617;-44
2021/03/10 01:25:52;;;;;;;23.30;16.67;;;11.90;49.40;;;;;;5064365;28;20196;-44
2021/03/10 01:28:18;;;;;;;20.90;15.53;;;12.00;49.60;;;;;;5070164;28;20895;-43
2021/03/10 01:30:43;;;;;;;23.90;17.07;;;11.90;49.80;;;;;;5071199;28;20239;-44
2021/03/10 01:33:09;;;;;;;23.63;16.70;;;11.90;50.00;;;;;;5068580;28;20713;-43
2021/03/10 01:35:35;;;;;;;25.07;15.73;;;11.90;50.10;;;;;;5065127;28;20194;-43
2021/03/10 01:38:01;;;;;;;22.60;16.10;;;11.80;50.60;;;;;;5068004;28;20196;-44
2021/03/10 01:40:27;;;;;;;24.30;17.70;;;11.80;50.10;;;;;;5072586;28;20932;-43
2021/03/10 01:42:52;;;;;;;25.10;17.40;;;11.80;50.00;;;;;;5071408;28;20576;-44
2021/03/10 01:45:18;;;;;;;24.23;17.40;;;11.80;50.10;;;;;;5066612;28;20204;-43
2021/03/10 01:47:46;;;;;;;22.03;17.53;;;11.80;50.10;;;;;;5069447;28;20188;-44
2021/03/10 01:50:16;;;;;;;21.70;16.93;;;11.80;50.00;;;;;;5068605;28;20933;-44
2021/03/10 01:52:42;;;;;;;21.07;16.30;;;11.80;50.00;;;;;;5068246;28;20929;-44
2021/03/10 01:55:09;;;;;;;20.07;15.77;;;11.70;50.00;;;;;;5069607;28;20449;-44
2021/03/10 01:57:35;;;;;;;20.67;16.50;;;11.70;50.10;;;;;;5069647;28;20203;-44
2021/03/10 02:00:04;;;;;;;25.00;15.50;;;11.60;50.10;;;;;;5052902;28;20488;-44
2021/03/10 02:02:29;;;;;;;19.53;16.33;;;11.60;50.10;;;;;;5067553;28;20493;-43
2021/03/10 02:04:55;;;;;;;19.80;14.87;;;11.60;50.20;;;;;;5067450;28;20457;-44
2021/03/10 02:07:26;;;;;;;19.67;15.43;;;11.60;50.20;;;;;;5062085;28;20196;-44
2021/03/10 02:10:10;;;;;;;21.47;15.87;;;11.70;50.20;;;;;;5064815;28;20222;-44
2021/03/10 02:12:50;;;;;;;19.90;15.40;;;11.70;50.20;;;;;;5067787;28;20869;-44
2021/03/10 02:15:44;;;;;;;19.80;16.20;;;11.70;50.80;;;;;;5068225;28;20460;-44
2021/03/10 02:18:19;;;;;;;20.60;15.60;;;11.70;50.10;;;;;;5070245;28;20808;-44
2021/03/10 02:20:47;;;;;;;20.23;15.70;;;11.70;50.20;;;;;;5069827;28;20459;-43
2021/03/10 02:23:18;;;;;;;19.10;15.90;;;11.70;50.00;;;;;;5066476;28;20517;-45
2021/03/10 02:26:27;;;;;;;22.37;17.80;;;11.60;50.10;;;;;;5062164;28;20493;-44
2021/03/10 02:28:57;;;;;;;21.13;15.90;;;11.60;50.30;;;;;;5014212;28;20497;-44
2021/03/10 02:31:23;;;;;;;22.90;16.77;;;11.60;50.50;;;;;;5067734;28;20912;-44
2021/03/10 02:33:49;;;;;;;20.57;15.03;;;11.60;50.50;;;;;;5064996;28;20447;-44
2021/03/10 02:36:16;;;;;;;22.80;16.30;;;11.60;50.40;;;;;;5058228;28;20841;-44
2021/03/10 02:38:45;;;;;;;22.40;16.17;;;11.60;50.40;;;;;;5066858;28;20560;-44
2021/03/10 02:41:11;;;;;;;21.10;16.70;;;11.60;50.40;;;;;;5068457;28;20465;-44
2021/03/10 02:43:39;;;;;;;21.27;16.40;;;11.60;50.50;;;;;;5067952;28;20482;-46
2021/03/10 02:46:06;;;;;;;25.87;16.73;;;11.60;50.40;;;;;;5069191;28;20499;-44
2021/03/10 02:48:33;;;;;;;20.87;16.27;;;11.60;50.40;;;;;;5069504;28;20446;-43
2021/03/10 02:51:00;;;;;;;21.30;16.83;;;11.70;50.40;;;;;;5066619;28;20451;-44
2021/03/10 02:53:26;;;;;;;18.80;15.40;;;11.80;50.40;;;;;;5069333;28;20920;-44
2021/03/10 02:55:52;;;;;;;18.90;15.13;;;11.70;50.30;;;;;;5067560;28;20470;-44
2021/03/10 02:58:18;;;;;;;20.60;15.80;;;11.70;50.30;;;;;;5067129;28;20497;-44
2021/03/10 03:00:44;;;;;;;22.77;16.77;;;11.70;50.40;;;;;;5064448;28;20434;-44
2021/03/10 03:03:11;;;;;;;24.53;17.73;;;11.70;50.40;;;;;;5060671;28;20215;-44
2021/03/10 03:05:37;;;;;;;23.87;17.10;;;11.60;50.50;;;;;;5066811;28;20458;-43
2021/03/10 03:08:04;;;;;;;20.23;15.40;;;11.60;50.50;;;;;;5069280;28;20450;-44
2021/03/10 03:10:36;;;;;;;23.60;16.70;;;11.60;50.50;;;;;;5065530;28;20212;-44
2021/03/10 03:13:03;;;;;;;23.20;16.73;;;11.70;50.70;;;;;;5064103;28;20531;-43
2021/03/10 03:15:29;;;;;;;21.07;16.07;;;11.70;50.90;;;;;;5062453;28;20449;-44
2021/03/10 03:17:56;;;;;;;21.60;17.17;;;11.70;51.10;;;;;;5061396;28;20450;-44
2021/03/10 03:20:24;;;;;;;24.90;17.50;;;11.70;51.60;;;;;;5064614;28;20442;-44
2021/03/10 03:22:55;;;;;;;25.20;17.40;;;11.70;51.80;;;;;;5063460;28;20620;-45
2021/03/10 03:25:29;;;;;;;20.33;16.20;;;11.70;51.90;;;;;;5066570;28;20442;-43
2021/03/10 03:27:57;;;;;;;22.20;17.90;;;11.70;51.90;;;;;;5059660;28;20442;-44
2021/03/10 03:30:27;;;;;;;22.37;17.03;;;11.70;51.90;;;;;;5064149;28;20933;-43
2021/03/10 03:32:54;;;;;;;25.47;17.90;;;11.60;51.90;;;;;;5067698;28;20481;-43
2021/03/10 03:35:21;;;;;;;29.20;18.23;;;11.60;52.10;;;;;;5067661;28;20446;-44
2021/03/10 03:37:53;;;;;;;23.50;18.20;;;11.60;52.30;;;;;;5067942;28;20489;-45
2021/03/10 03:40:20;;;;;;;22.00;16.93;;;11.60;52.20;;;;;;5065401;28;20446;-43
2021/03/10 03:42:46;;;;;;;24.97;18.13;;;11.60;52.20;;;;;;5065800;28;20486;-43
2021/03/10 03:45:15;;;;;;;25.90;19.13;;;11.50;52.70;;;;;;5061622;28;20503;-44
2021/03/10 03:47:41;;;;;;;20.60;17.27;;;11.50;52.10;;;;;;5066429;28;20442;-43
2021/03/10 03:50:12;;;;;;;26.87;19.00;;;11.50;52.20;;;;;;5069600;28;20442;-43
2021/03/10 03:52:44;;;;;;;23.10;17.40;;;11.50;52.30;;;;;;5068621;28;20454;-43
2021/03/10 03:55:11;;;;;;;28.87;19.00;;;11.50;52.20;;;;;;5062516;28;20520;-44
2021/03/10 03:57:37;;;;;;;24.50;17.53;;;11.50;52.20;;;;;;5067875;28;20442;-44
2021/03/10 04:00:25;;;;;;;22.00;17.63;;;11.50;52.10;;;;;;5068073;28;20442;-43
2021/03/10 04:02:51;;;;;;;30.70;19.27;;;11.50;52.20;;;;;;5068025;28;20486;-43
2021/03/10 04:05:18;;;;;;;26.23;19.27;;;11.40;52.10;;;;;;5066720;28;20442;-43
2021/03/10 04:07:52;;;;;;;32.70;20.23;;;11.50;52.20;;;;;;5068119;28;20621;-44
2021/03/10 04:10:20;;;;;;;30.70;20.97;;;11.40;51.90;;;;;;5069199;28;20454;-45
2021/03/10 04:12:46;;;;;;;28.90;20.00;;;11.50;51.90;;;;;;5059669;28;20453;-44
2021/03/10 04:15:12;;;;;;;27.87;19.73;;;11.50;51.90;;;;;;5061609;28;20446;-44
2021/03/10 04:17:38;;;;;;;28.60;20.23;;;11.50;51.80;;;;;;5066565;28;20659;-44
2021/03/10 04:20:07;;;;;;;27.00;18.80;;;11.50;51.70;;;;;;5056596;28;20462;-44
2021/03/10 04:22:33;;;;;;;25.37;17.80;;;11.50;51.80;;;;;;5065478;28;20263;-44
2021/03/10 04:24:59;;;;;;;27.67;19.20;;;11.40;51.90;;;;;;5065136;28;21152;-43
2021/03/10 04:27:24;;;;;;;28.33;19.47;;;11.40;52.10;;;;;;5066787;28;20195;-44
2021/03/10 04:29:50;;;;;;;28.23;19.40;;;11.40;52.20;;;;;;5067568;28;20677;-44
2021/03/10 04:32:15;;;;;;;26.63;18.27;;;11.40;52.20;;;;;;5065466;28;20235;-44
2021/03/10 04:34:41;;;;;;;26.40;19.30;;;11.40;52.10;;;;;;5063850;28;20200;-44
2021/03/10 04:37:06;;;;;;;23.57;18.23;;;11.50;52.00;;;;;;5067537;28;20202;-43
2021/03/10 04:39:32;;;;;;;25.93;18.97;;;11.50;51.90;;;;;;5068532;28;20196;-43
2021/03/10 04:41:58;;;;;;;28.53;18.90;;;11.40;52.10;;;;;;5061046;28;20679;-43
2021/03/10 04:44:23;;;;;;;27.27;19.20;;;11.40;52.10;;;;;;5065318;28;20662;-44
2021/03/10 04:46:49;;;;;;;26.57;19.73;;;11.40;51.90;;;;;;5066414;28;20200;-44
2021/03/10 04:49:14;;;;;;;25.73;18.23;;;11.50;51.90;;;;;;5066922;28;20525;-44
2021/03/10 04:51:40;;;;;;;26.30;18.40;;;11.50;51.80;;;;;;5058252;28;20207;-43
2021/03/10 04:54:05;;;;;;;27.30;18.40;;;11.50;51.80;;;;;;5070001;28;20196;-43
2021/03/10 04:56:31;;;;;;;26.13;19.30;;;11.50;51.70;;;;;;5070489;28;20636;-43
2021/03/10 04:58:56;;;;;;;28.20;20.13;;;11.50;51.70;;;;;;5064404;28;20279;-44
2021/03/10 05:01:22;;;;;;;28.93;19.90;;;11.50;51.70;;;;;;5065951;28;20651;-43
2021/03/10 05:03:47;;;;;;;26.50;20.60;;;11.40;51.70;;;;;;5068558;28;20669;-44
2021/03/10 05:06:13;;;;;;;25.67;19.00;;;11.50;51.70;;;;;;5070278;28;20191;-44
2021/03/10 05:08:38;;;;;;;27.60;19.37;;;11.40;51.50;;;;;;5070604;28;20369;-44
2021/03/10 05:11:04;;;;;;;29.20;19.30;;;11.50;51.60;;;;;;5067453;28;20538;-43
2021/03/10 05:13:30;;;;;;;26.30;18.00;;;11.50;51.50;;;;;;5068951;28;20278;-44
2021/03/10 05:15:55;;;;;;;28.77;19.67;;;11.50;51.50;;;;;;5070037;28;20661;-45
2021/03/10 05:18:21;;;;;;;24.23;16.83;;;11.50;51.50;;;;;;5062993;28;20659;-44
2021/03/10 05:20:46;;;;;;;27.50;20.30;;;11.50;51.40;;;;;;5066259;28;20640;-44
2021/03/10 05:23:12;;;;;;;28.00;18.97;;;11.50;51.60;;;;;;5072622;28;20349;-43
2021/03/10 05:25:38;;;;;;;27.43;20.47;;;11.40;51.60;;;;;;5068097;28;20199;-43
2021/03/10 05:28:03;;;;;;;26.73;18.80;;;11.40;51.70;;;;;;5066218;28;20254;-44
2021/03/10 05:30:29;;;;;;;32.40;20.00;;;11.40;51.80;;;;;;5071390;28;20235;-44
2021/03/10 05:32:55;;;;;;;26.83;20.17;;;11.40;51.80;;;;;;5069681;28;20211;-44
2021/03/10 05:35:20;;;;;;;30.23;20.00;;;11.50;51.70;;;;;;5052591;28;20271;-43
2021/03/10 05:37:46;;;;;;;26.33;19.10;;;11.50;51.70;;;;;;5069294;28;20211;-43
2021/03/10 05:40:12;;;;;;;27.50;19.87;;;11.50;51.60;;;;;;5067640;28;20199;-44
2021/03/10 05:42:40;;;;;;;27.33;18.70;;;11.50;51.50;;;;;;5069254;28;20361;-44
2021/03/10 05:45:06;;;;;;;28.30;19.37;;;11.50;51.60;;;;;;5066316;28;20196;-44
2021/03/10 05:47:32;;;;;;;29.00;18.97;;;11.40;51.60;;;;;;5064818;28;20457;-44
2021/03/10 05:49:57;;;;;;;33.90;21.97;;;11.40;51.70;;;;;;5069405;28;20809;-43
2021/03/10 05:52:23;;;;;;;29.37;20.53;;;11.40;51.80;;;;;;5068740;28;20199;-43
2021/03/10 05:54:51;;;;;;;28.30;20.40;;;11.50;51.90;;;;;;5071744;28;20707;-44
2021/03/10 05:57:18;;;;;;;29.10;20.50;;;11.40;51.70;;;;;;5072021;28;20199;-43
2021/03/10 05:59:44;;;;;;;28.70;19.90;;;11.40;51.70;;;;;;5070565;28;20465;-44
2021/03/10 06:02:09;;;;;;;28.93;19.57;;;11.40;51.70;;;;;;5070208;28;20575;-43
2021/03/10 06:04:42;;;;;;;30.67;21.10;;;11.40;51.80;;;;;;5067894;28;20625;-44
2021/03/10 06:07:24;;;;;;;30.00;21.70;;;11.50;51.80;;;;;;5069679;28;20200;-44
2021/03/10 06:10:03;;;;;;;27.83;20.97;;;11.50;51.70;;;;;;5069909;28;20450;-44
2021/03/10 06:12:37;;;;;;;29.30;20.67;;;11.50;51.60;;;;;;5067407;28;20821;-44
2021/03/10 06:15:04;;;;;;;31.20;21.37;;;11.50;51.60;;;;;;5068477;28;20477;-44
2021/03/10 06:17:43;;;;;;;32.07;23.37;;;11.50;51.50;;;;;;5069521;28;20809;-44
2021/03/10 06:20:10;;;;;;;27.20;19.57;;;11.40;51.50;;;;;;5068749;28;20457;-43
2021/03/10 06:22:36;;;;;;;36.03;20.90;;;11.40;51.70;;;;;;5064292;28;20478;-44
2021/03/10 06:25:04;;;;;;;29.13;20.47;;;11.40;51.90;;;;;;5066932;28;20522;-44
2021/03/10 06:27:29;;;;;;;36.60;25.00;;;11.50;52.60;;;;;;5070275;28;20453;-44
2021/03/10 06:30:00;;;;;;;39.23;26.53;;;11.70;52.30;;;;;;5069156;28;20434;-48
2021/03/10 06:32:26;;;;;;;47.83;29.77;;;11.90;51.90;;;;;;5071639;28;20602;-46
2021/03/10 06:34:52;;;;;;;30.00;17.63;;;12.10;51.50;;;;;;5063625;28;20470;-45
2021/03/10 06:37:44;;;;;;;29.00;22.33;;;12.30;51.90;;;;;;5049776;28;20529;-44
2021/03/10 06:40:12;;;;;;;29.00;22.07;;;12.50;51.70;;;;;;5059253;28;20502;-44
2021/03/10 06:42:38;;;;;;;26.97;18.37;;;12.70;50.70;;;;;;5069935;28;20568;-44
2021/03/10 06:45:05;;;;;;;28.90;21.20;;;12.80;50.00;;;;;;5067973;28;20549;-45
2021/03/10 06:47:49;;;;;;;30.47;20.90;;;12.90;49.70;;;;;;5070338;28;20445;-44
2021/03/10 06:50:15;;;;;;;26.93;20.20;;;13.00;49.30;;;;;;5067393;28;20442;-44
2021/03/10 06:52:51;;;;;;;26.03;19.23;;;13.10;48.80;;;;;;5048380;28;20792;-45
2021/03/10 06:55:17;;;;;;;27.63;20.50;;;13.10;48.70;;;;;;5063161;28;20507;-44
2021/03/10 06:57:44;;;;;;;30.60;20.47;;;13.10;48.60;;;;;;5070563;28;20441;-44
2021/03/10 07:00:23;;;;;;;30.40;20.07;;;13.10;48.50;;;;;;5070678;28;20515;-44
2021/03/10 07:02:49;;;;;;;29.67;22.30;;;13.10;48.30;;;;;;5064976;28;20719;-44
2021/03/10 07:05:17;;;;;;;31.20;20.60;;;13.20;48.20;;;;;;5069240;28;20426;-44
2021/03/10 07:07:43;;;;;;;31.70;22.03;;;13.20;48.00;;;;;;5070118;28;20434;-45
2021/03/10 07:10:09;;;;;;;30.60;21.43;;;13.30;47.90;;;;;;5070213;28;20495;-44
2021/03/10 07:12:35;;;;;;;32.43;22.83;;;13.30;47.80;;;;;;5070462;28;20426;-44
2021/03/10 07:15:01;;;;;;;27.33;20.80;;;13.30;47.70;;;;;;5063625;28;20231;-44
2021/03/10 07:17:27;;;;;;;29.10;21.13;;;13.30;47.80;;;;;;5070101;28;20195;-44
2021/03/10 07:19:53;;;;;;;35.67;22.10;;;13.30;47.50;;;;;;5070944;28;20438;-45
2021/03/10 07:22:44;;;;;;;32.37;20.30;;;13.30;47.60;;;;;;5071507;28;20477;-45
2021/03/10 07:25:27;;;;;;;30.87;19.50;;;13.40;47.60;;;;;;5070568;28;20589;-45
2021/03/10 07:28:15;;;;;;;31.80;20.87;;;13.50;47.60;;;;;;5070762;28;20434;-45
2021/03/10 07:30:44;;;;;;;26.67;18.33;;;13.60;47.30;;;;;;5071026;28;20485;-44
2021/03/10 07:33:17;;;;;;;26.93;19.20;;;13.50;47.20;;;;;;5073876;28;20442;-44
2021/03/10 07:35:46;;;;;;;31.03;21.83;;;13.60;47.30;;;;;;5068977;28;20476;-44
2021/03/10 07:38:11;;;;;;;29.67;21.10;;;13.30;47.90;;;;;;5071211;28;20438;-44
2021/03/10 07:40:37;;;;;;;32.40;22.47;;;13.10;48.10;;;;;;5070787;28;20426;-44
2021/03/10 07:43:02;;;;;;;31.03;22.53;;;13.10;48.50;;;;;;5069519;28;20305;-44
2021/03/10 07:45:48;;;;;;;30.00;22.33;;;13.20;48.20;;;;;;5070612;28;20196;-44
2021/03/10 07:48:14;;;;;;;26.83;16.70;;;13.30;48.00;;;;;;5069127;28;20728;-44
2021/03/10 07:50:45;;;;;;;30.10;19.73;;;13.40;47.90;;;;;;5069647;28;20499;-44
2021/03/10 07:53:11;;;;;;;28.03;19.27;;;13.40;47.70;;;;;;5071059;28;20204;-44
2021/03/10 07:55:47;;;;;;;28.30;20.23;;;13.50;47.40;;;;;;5069348;28;20534;-44
2021/03/10 07:58:25;;;;;;;30.47;20.93;;;13.70;47.10;;;;;;5070607;28;20446;-44
2021/03/10 08:00:50;;;;;;;32.90;21.30;;;13.80;47.10;;;;;;5066665;28;20793;-44
2021/03/10 08:03:29;;;;;;;32.23;22.37;;;13.90;46.70;;;;;;5068407;28;20490;-45
2021/03/10 08:06:04;;;;;;;30.53;21.50;;;14.00;46.50;;;;;;5064064;28;20566;-45
2021/03/10 08:08:49;;;;;;;28.00;20.17;;;14.00;46.50;;;;;;5066966;28;20775;-45
2021/03/10 08:11:17;;;;;;;34.90;21.43;;;14.00;46.30;;;;;;5067568;28;20478;-44
2021/03/10 08:13:44;;;;;;;28.77;21.47;;;14.10;46.20;;;;;;5069258;28;20434;-45
2021/03/10 08:16:11;;;;;;;34.43;22.67;;;14.10;46.10;;;;;;5066714;28;20517;-45
2021/03/10 08:18:44;;;;;;;29.33;20.87;;;13.90;46.60;;;;;;5067816;28;20875;-44
2021/03/10 08:21:12;;;;;;;33.63;22.03;;;13.90;46.50;;;;;;5060600;28;20439;-45
2021/03/10 08:23:38;;;;;;;32.93;22.00;;;13.90;46.30;;;;;;5069790;28;20484;-43
2021/03/10 08:26:06;;;;;;;32.13;22.20;;;13.80;46.60;;;;;;5068463;28;20450;-45
2021/03/10 08:28:34;;;;;;;32.87;22.57;;;13.90;46.90;;;;;;5072934;28;20449;-43
2021/03/10 08:31:02;;;;;;;32.53;22.20;;;13.90;46.90;;;;;;5069310;28;20584;-45
2021/03/10 08:33:28;;;;;;;30.90;21.67;;;13.90;46.70;;;;;;5069111;28;20437;-45
2021/03/10 08:35:53;;;;;;;28.47;20.90;;;13.90;46.70;;;;;;5066096;28;20502;-45
2021/03/10 08:38:19;;;;;;;27.80;20.97;;;13.80;46.70;;;;;;5073587;28;20438;-43
2021/03/10 08:40:45;;;;;;;28.37;21.00;;;13.50;47.20;;;;;;5065099;28;20192;-44
2021/03/10 08:43:17;;;;;;;30.30;19.90;;;13.30;47.80;;;;;;5074305;28;20255;-45
2021/03/10 08:45:43;;;;;;;28.47;20.33;;;13.30;48.10;;;;;;5071949;28;20278;-44
2021/03/10 08:48:12;;;;;;;27.50;20.40;;;13.20;48.00;;;;;;5072759;28;20525;-43
2021/03/10 08:50:40;;;;;;;29.17;20.57;;;13.20;48.00;;;;;;5072243;28;20196;-42
2021/03/10 08:53:08;;;;;;;26.43;19.50;;;13.00;48.10;;;;;;5073804;28;20438;-43
2021/03/10 08:55:34;;;;;;;30.73;21.43;;;12.90;48.30;;;;;;5072532;28;20540;-43
2021/03/10 08:58:06;;;;;;;28.77;19.93;;;12.80;48.50;;;;;;5071456;28;20596;-43
2021/03/10 09:00:33;;;;;;;27.97;20.27;;;12.70;48.90;;;;;;5068087;28;20530;-43
2021/03/10 09:03:13;;;;;;;29.73;20.40;;;12.70;48.90;;;;;;5071081;28;20481;-43
2021/03/10 09:05:41;;;;;;;27.60;21.07;;;12.70;49.30;;;;;;5069207;28;20437;-43
2021/03/10 09:08:08;;;;;;;29.20;21.97;;;12.80;49.20;;;;;;5069687;28;20506;-44
2021/03/10 09:10:35;;;;;;;28.77;20.03;;;12.90;49.30;;;;;;5071822;28;20973;-42
2021/03/10 09:13:01;;;;;;;29.50;19.20;;;12.90;48.60;;;;;;5071110;28;20560;-44
2021/03/10 09:15:29;;;;;;;28.33;20.00;;;13.00;48.90;;;;;;5070853;28;20438;-43
2021/03/10 09:18:08;;;;;;;30.50;21.87;;;12.80;48.70;;;;;;5071703;28;20434;-43
2021/03/10 09:20:36;;;;;;;29.90;18.80;;;13.00;48.90;;;;;;5054016;28;20469;-43
2021/03/10 09:23:04;;;;;;;26.87;20.27;;;13.10;48.70;;;;;;5072572;28;20873;-43
2021/03/10 09:25:34;;;;;;;25.60;19.70;;;13.20;48.30;;;;;;5070440;28;20445;-43
2021/03/10 09:28:11;;;;;;;29.40;19.83;;;13.10;48.30;;;;;;5065110;28;20430;-43
2021/03/10 09:30:42;;;;;;;27.60;19.03;;;13.10;47.90;;;;;;5068235;28;20465;-43
2021/03/10 09:33:20;;;;;;;27.70;19.00;;;13.20;47.80;;;;;;5070297;28;20442;-43
2021/03/10 09:36:00;;;;;;;24.70;19.20;;;13.30;47.60;;;;;;5062926;28;21631;-43
2021/03/10 09:38:28;;;;;;;26.47;18.30;;;13.30;47.60;;;;;;5071875;28;20927;-43
2021/03/10 09:40:59;;;;;;;28.97;20.10;;;13.40;47.80;;;;;;5070933;28;20501;-44
2021/03/10 09:43:27;;;;;;;29.83;19.80;;;13.50;47.60;;;;;;5064037;28;20483;-42
2021/03/10 09:45:59;;;;;;;23.90;16.73;;;13.60;47.10;;;;;;5067238;28;20448;-43
2021/03/10 09:48:29;;;;;;;26.10;19.33;;;13.80;46.90;;;;;;5061682;28;20450;-43
2021/03/10 09:51:05;;;;;;;28.20;19.03;;;13.90;46.70;;;;;;5066355;28;20434;-43
2021/03/10 09:53:32;;;;;;;23.67;17.90;;;14.00;46.60;;;;;;5060969;28;20442;-43
2021/03/10 09:56:10;;;;;;;26.43;16.60;;;14.10;46.00;;;;;;5045833;28;20445;-43
2021/03/10 09:58:49;;;;;;;20.37;14.93;;;14.10;45.50;;;;;;5066101;28;20852;-43
2021/03/10 10:01:14;;;;;;;21.43;16.17;;;14.10;44.70;;;;;;5066271;28;20775;-43
2021/03/10 10:03:40;;;;;;;20.47;15.33;;;13.90;44.40;;;;;;5063572;28;20488;-43
2021/03/10 10:06:07;;;;;;;22.60;15.03;;;13.90;44.40;;;;;;5060277;28;20241;-43
2021/03/10 10:08:35;;;;;;;24.57;16.57;;;14.00;44.60;;;;;;5069035;28;21063;-43
2021/03/10 10:11:04;;;;;;;26.00;18.50;;;14.20;44.40;;;;;;5065892;28;20434;-44
2021/03/10 10:13:30;;;;;;;21.17;16.00;;;14.30;44.30;;;;;;5057580;28;20513;-42
2021/03/10 10:15:55;;;;;;;24.75;19.35;;;14.30;44.00;;;;;;5068466;28;20501;-44
2021/03/10 10:18:22;;;;;;;24.37;16.87;;;14.50;43.60;;;;;;5066517;28;20683;-43
2021/03/10 10:20:48;;;;;;;21.73;16.30;;;14.50;43.20;;;;;;5062630;28;20198;-42
2021/03/10 10:23:14;;;;;;;21.77;16.23;;;14.40;43.10;;;;;;5067645;28;20492;-43
2021/03/10 10:25:39;;;;;;;22.30;17.30;;;14.30;43.30;;;;;;5069322;28;21048;-42
2021/03/10 10:28:05;;;;;;;20.70;15.53;;;14.50;43.60;;;;;;5067761;28;20203;-42
2021/03/10 10:30:31;;;;;;;21.73;15.10;;;14.40;43.30;;;;;;5067435;28;20318;-42
2021/03/10 10:32:56;;;;;;;19.10;14.73;;;14.40;43.40;;;;;;5070619;28;20219;-42
2021/03/10 10:35:22;;;;;;;23.77;17.40;;;14.50;43.50;;;;;;5068720;28;20202;-42
2021/03/10 10:37:48;;;;;;;23.53;16.83;;;14.50;43.50;;;;;;5070187;28;20200;-43
2021/03/10 10:40:18;;;;;;;20.20;15.43;;;14.80;43.10;;;;;;5067406;28;20276;-43
2021/03/10 10:42:44;;;;;;;17.07;12.17;;;15.00;43.20;;;;;;5066950;28;20678;-43
2021/03/10 10:45:10;;;;;;;15.27;11.13;;;15.00;41.20;;;;;;5070022;28;20473;-43
2021/03/10 10:47:36;;;;;;;17.90;13.33;;;14.90;39.80;;;;;;5069111;28;20426;-42
2021/03/10 10:50:06;;;;;;;15.50;12.33;;;14.60;40.10;;;;;;5067996;28;20928;-42
2021/03/10 10:52:32;;;;;;;15.27;10.63;;;14.60;40.90;;;;;;5068783;28;20596;-42
2021/03/10 10:54:57;;;;;;;15.67;11.50;;;14.80;41.00;;;;;;5070839;28;20529;-42
2021/03/10 10:57:23;;;;;;;13.30;9.90;;;14.80;40.00;;;;;;5058993;28;21009;-42
2021/03/10 10:59:49;;;;;;;11.37;8.93;;;14.70;39.20;;;;;;5071017;28;20203;-42
2021/03/10 11:02:14;;;;;;;9.60;7.50;;;14.80;38.80;;;;;;5069964;28;20247;-43
2021/03/10 11:04:40;;;;;;;10.20;5.90;;;14.60;37.30;;;;;;5063357;28;20192;-43
2021/03/10 11:07:06;;;;;;;7.23;5.20;;;14.30;36.00;;;;;;5068879;28;20187;-42
2021/03/10 11:09:33;;;;;;;6.17;5.47;;;14.20;35.80;;;;;;5069104;28;20192;-42
2021/03/10 11:11:59;;;;;;;6.53;5.13;;;13.80;36.00;;;;;;5064055;28;20942;-42
2021/03/10 11:14:25;;;;;;;8.83;4.70;;;13.40;36.20;;;;;;5070653;28;20502;-43
2021/03/10 11:16:51;;;;;;;5.43;4.33;;;13.40;35.60;;;;;;5071041;28;20442;-42
2021/03/10 11:19:16;;;;;;;6.83;5.00;;;13.60;36.20;;;;;;5061816;28;20640;-43
2021/03/10 11:21:42;;;;;;;6.60;5.67;;;13.80;36.60;;;;;;5064622;28;20202;-42
2021/03/10 11:24:08;;;;;;;14.20;9.00;;;13.90;36.50;;;;;;5071857;28;20202;-42
2021/03/10 11:26:34;;;;;;;12.17;8.73;;;13.90;37.70;;;;;;5070219;28;20260;-42
2021/03/10 11:29:00;;;;;;;12.67;8.53;;;13.70;38.20;;;;;;5069935;28;20530;-43
2021/03/10 11:31:25;;;;;;;10.70;7.67;;;13.80;38.40;;;;;;5069401;28;20573;-42
2021/03/10 11:33:51;;;;;;;10.57;8.10;;;14.00;37.70;;;;;;5070710;28;20196;-42
2021/03/10 11:36:17;;;;;;;10.13;7.93;;;14.00;38.00;;;;;;5070089;28;20191;-42
2021/03/10 11:38:42;;;;;;;9.10;7.63;;;14.20;37.70;;;;;;5062442;28;20208;-42
2021/03/10 11:41:09;;;;;;;8.73;7.13;;;14.30;37.20;;;;;;5068249;28;20203;-43
2021/03/10 11:43:35;;;;;;;10.10;7.57;;;14.20;36.70;;;;;;5065354;28;20702;-42
2021/03/10 11:46:00;;;;;;;10.80;7.10;;;14.30;36.00;;;;;;5065809;28;20431;-42
2021/03/10 11:48:26;;;;;;;8.30;7.07;;;14.40;36.30;;;;;;5067869;28;20216;-43
2021/03/10 11:50:52;;;;;;;8.67;6.67;;;14.70;35.80;;;;;;5067489;28;20206;-44
2021/03/10 11:53:17;;;;;;;8.17;6.73;;;14.90;35.10;;;;;;5059207;28;20184;-42
2021/03/10 11:55:44;;;;;;;7.70;6.80;;;15.10;35.40;;;;;;5070359;28;20231;-43
2021/03/10 11:58:09;;;;;;;8.33;6.13;;;15.00;33.60;;;;;;5070738;28;20184;-42
2021/03/10 12:00:37;;;;;;;7.27;5.73;;;15.10;33.70;;;;;;5069811;28;20445;-42
2021/03/10 12:03:03;;;;;;;7.17;5.90;;;15.10;33.40;;;;;;5065167;28;20220;-43
2021/03/10 12:05:29;;;;;;;8.13;6.57;;;15.30;32.80;;;;;;5067349;28;20445;-43
2021/03/10 12:07:54;;;;;;;6.67;5.90;;;15.60;33.90;;;;;;5058332;28;20437;-43
2021/03/10 12:10:20;;;;;;;9.10;6.33;;;15.90;33.60;;;;;;5064718;28;20640;-43
2021/03/10 12:12:46;;;;;;;7.80;6.13;;;15.90;31.70;;;;;;5069684;28;20187;-43
2021/03/10 12:15:12;;;;;;;9.13;6.70;;;16.10;31.90;;;;;;5068316;28;20438;-43
2021/03/10 12:17:38;;;;;;;8.93;6.90;;;16.00;31.80;;;;;;5067980;28;20196;-43
2021/03/10 12:20:05;;;;;;;8.90;7.23;;;16.10;32.30;;;;;;5044753;28;21010;-42
2021/03/10 12:22:31;;;;;;;7.40;6.70;;;16.00;32.40;;;;;;5070420;28;21054;-44
2021/03/10 12:24:56;;;;;;;9.80;7.33;;;16.10;33.00;;;;;;5050423;28;20430;-44
2021/03/10 12:27:25;;;;;;;10.70;8.47;;;16.20;33.50;;;;;;5067277;28;20923;-44
2021/03/10 12:29:57;;;;;;;10.80;8.10;;;16.30;32.70;;;;;;5063615;28;20655;-43
2021/03/10 12:32:23;;;;;;;9.70;7.80;;;16.30;32.80;;;;;;5063341;28;20447;-43